Time;durP1;ratioP1;P1;durP2;ratioP2;P2;SDS_P1;SDS_P2;PMS_P1;PMS_P2;Temp;Humidity;BMP_temperature;BMP_pressure;BME280_temperature;BME280_humidity;BME280_pressure;Samples;Min_cycle;Max_cycle;Signal;HPM_P1;HPM_P2
2021/01/17 00:02:04;;;;;;;56.65;29.52;;;;;;;;;;5098133;28;20747;-66
2021/01/17 00:04:31;;;;;;;52.53;27.80;;;;;;;;;;5098315;28;20199;-69
2021/01/17 00:06:59;;;;;;;64.28;30.60;;;;;;;;;;5097211;28;20199;-65
2021/01/17 00:09:25;;;;;;;51.10;26.27;;;;;;;;;;5096570;28;20194;-64
2021/01/17 00:11:52;;;;;;;52.30;28.17;;;;;;;;;;5094977;28;20211;-65
2021/01/17 00:14:21;;;;;;;58.45;29.80;;;;;;;;;;5107206;27;20335;-65
2021/01/17 00:16:50;;;;;;;51.78;27.70;;;;;;;;;;5103920;27;20286;-65
2021/01/17 00:19:17;;;;;;;48.53;26.38;;;;;;;;;;5096655;28;20191;-65
2021/01/17 00:21:44;;;;;;;48.78;26.23;;;;;;;;;;5099102;28;20226;-65
2021/01/17 00:24:12;;;;;;;49.67;27.02;;;;;;;;;;5097671;28;20287;-65
2021/01/17 00:26:39;;;;;;;51.03;26.65;;;;;;;;;;5098952;28;20195;-65
2021/01/17 00:29:07;;;;;;;50.38;26.65;;;;;;;;;;5097781;28;20183;-66
2021/01/17 00:31:35;;;;;;;47.28;25.40;;;;;;;;;;5099327;28;20558;-66
2021/01/17 00:34:04;;;;;;;51.70;26.52;;;;;;;;;;5097420;28;20282;-65
2021/01/17 00:36:37;;;;;;;45.05;23.73;;;;;;;;;;5096400;28;20299;-66
2021/01/17 00:39:04;;;;;;;53.55;27.92;;;;;;;;;;5096261;28;20678;-65
2021/01/17 00:41:32;;;;;;;46.58;24.95;;;;;;;;;;5096134;28;20288;-65
2021/01/17 00:44:03;;;;;;;46.50;26.40;;;;;;;;;;5101817;27;20209;-65
2021/01/17 00:46:41;;;;;;;50.72;26.55;;;;;;;;;;5108549;27;20238;-65
2021/01/17 00:49:08;;;;;;;51.25;29.17;;;;;;;;;;5096256;28;20203;-65
2021/01/17 00:51:45;;;;;;;48.60;24.42;;;;;;;;;;5096743;28;20210;-65
2021/01/17 00:54:13;;;;;;;47.53;25.80;;;;;;;;;;5096121;28;20619;-65
2021/01/17 00:56:40;;;;;;;45.22;26.52;;;;;;;;;;5096411;28;20195;-66
2021/01/17 00:59:08;;;;;;;49.97;27.30;;;;;;;;;;5096612;28;20195;-66
2021/01/17 01:01:37;;;;;;;54.60;25.98;;;;;;;;;;5096079;28;20215;-65
2021/01/17 01:04:03;;;;;;;49.05;24.83;;;;;;;;;;5096477;28;20628;-65
2021/01/17 01:06:31;;;;;;;51.08;25.25;;;;;;;;;;5096337;28;20311;-65
2021/01/17 01:08:58;;;;;;;45.20;25.50;;;;;;;;;;5096916;28;20191;-66
2021/01/17 01:11:27;;;;;;;47.30;26.17;;;;;;;;;;5096235;28;20195;-67
2021/01/17 01:13:54;;;;;;;49.33;26.85;;;;;;;;;;5100354;27;20207;-66
2021/01/17 01:16:20;;;;;;;49.28;27.80;;;;;;;;;;5111143;27;20213;-65
2021/01/17 01:18:49;;;;;;;50.33;26.13;;;;;;;;;;5094944;28;20187;-64
2021/01/17 01:21:15;;;;;;;68.10;29.25;;;;;;;;;;5096098;28;20549;-64
2021/01/17 01:23:42;;;;;;;53.83;27.50;;;;;;;;;;5095654;28;20191;-64
2021/01/17 01:26:09;;;;;;;49.85;27.05;;;;;;;;;;5095811;28;20187;-65
2021/01/17 01:28:35;;;;;;;52.20;26.17;;;;;;;;;;5095761;28;20199;-65
2021/01/17 01:31:03;;;;;;;48.78;25.77;;;;;;;;;;5095828;28;20704;-67
2021/01/17 01:33:29;;;;;;;48.50;25.95;;;;;;;;;;5095645;28;20192;-65
2021/01/17 01:35:59;;;;;;;50.67;24.67;;;;;;;;;;5094709;28;20209;-66
2021/01/17 01:38:25;;;;;;;47.92;25.35;;;;;;;;;;5095516;28;20613;-65
2021/01/17 01:40:53;;;;;;;47.47;26.25;;;;;;;;;;5095753;28;20201;-65
2021/01/17 01:43:22;;;;;;;48.30;25.20;;;;;;;;;;5095439;28;20199;-68
2021/01/17 01:45:49;;;;;;;47.65;27.17;;;;;;;;;;5114712;27;20558;-64
2021/01/17 01:48:16;;;;;;;47.42;24.63;;;;;;;;;;5094860;28;20227;-64
2021/01/17 01:50:43;;;;;;;44.13;25.05;;;;;;;;;;5094926;28;20199;-63
2021/01/17 01:53:10;;;;;;;45.58;25.73;;;;;;;;;;5094981;28;20191;-63
2021/01/17 01:55:42;;;;;;;48.22;24.10;;;;;;;;;;5095040;28;20659;-63
2021/01/17 01:58:08;;;;;;;50.67;25.80;;;;;;;;;;5095201;28;20665;-63
2021/01/17 02:00:35;;;;;;;48.15;24.70;;;;;;;;;;5094818;28;20206;-63
2021/01/17 02:03:04;;;;;;;52.10;25.90;;;;;;;;;;5094662;28;20678;-64
2021/01/17 02:05:30;;;;;;;44.65;24.10;;;;;;;;;;5094740;28;20191;-63
2021/01/17 02:08:03;;;;;;;47.08;25.60;;;;;;;;;;5095214;28;20647;-63
2021/01/17 02:10:31;;;;;;;46.58;23.73;;;;;;;;;;5094760;28;20182;-63
2021/01/17 02:13:07;;;;;;;52.30;25.85;;;;;;;;;;5094402;28;20229;-63
2021/01/17 02:15:36;;;;;;;51.20;26.10;;;;;;;;;;5113613;27;20214;-63
2021/01/17 02:18:03;;;;;;;50.70;26.95;;;;;;;;;;5094829;28;20195;-63
2021/01/17 02:20:33;;;;;;;49.50;27.15;;;;;;;;;;5094386;28;20199;-64
2021/01/17 02:23:02;;;;;;;52.83;27.33;;;;;;;;;;5095332;28;20223;-63
2021/01/17 02:25:34;;;;;;;47.28;27.73;;;;;;;;;;5094448;28;20203;-63
2021/01/17 02:28:03;;;;;;;43.60;25.13;;;;;;;;;;5094194;28;20195;-63
2021/01/17 02:30:31;;;;;;;47.22;26.80;;;;;;;;;;5094546;28;20199;-63
2021/01/17 02:33:02;;;;;;;57.47;26.83;;;;;;;;;;5093144;28;20208;-63
2021/01/17 02:35:33;;;;;;;43.95;25.08;;;;;;;;;;5094006;28;20259;-63
2021/01/17 02:38:19;;;;;;;48.60;27.83;;;;;;;;;;5094729;28;20191;-64
2021/01/17 02:40:55;;;;;;;53.08;26.88;;;;;;;;;;5094542;28;20172;-64
2021/01/17 02:43:25;;;;;;;51.45;25.77;;;;;;;;;;5094470;28;20285;-62
2021/01/17 02:45:52;;;;;;;45.83;25.67;;;;;;;;;;5101727;28;20219;-62
2021/01/17 02:48:19;;;;;;;55.38;29.08;;;;;;;;;;5093671;28;20230;-63
2021/01/17 02:50:45;;;;;;;47.53;25.45;;;;;;;;;;5093916;28;20578;-62
2021/01/17 02:53:19;;;;;;;54.25;26.40;;;;;;;;;;5093734;28;20607;-62
2021/01/17 02:55:45;;;;;;;53.95;24.50;;;;;;;;;;5093879;28;20186;-62
2021/01/17 02:58:13;;;;;;;53.33;26.52;;;;;;;;;;5093210;28;20199;-62
2021/01/17 03:00:40;;;;;;;59.58;28.70;;;;;;;;;;5092343;28;20207;-62
2021/01/17 03:03:11;;;;;;;58.03;28.88;;;;;;;;;;5093757;28;20219;-62
2021/01/17 03:05:40;;;;;;;48.53;27.30;;;;;;;;;;5093619;28;20187;-62
2021/01/17 03:08:11;;;;;;;49.05;28.80;;;;;;;;;;5093816;28;20596;-62
2021/01/17 03:10:38;;;;;;;49.72;26.60;;;;;;;;;;5093465;28;20651;-62
2021/01/17 03:13:05;;;;;;;53.08;29.55;;;;;;;;;;5091930;28;20209;-63
2021/01/17 03:15:33;;;;;;;61.35;30.52;;;;;;;;;;5112317;28;20207;-63
2021/01/17 03:18:01;;;;;;;49.13;29.02;;;;;;;;;;5093479;28;20198;-63
2021/01/17 03:20:27;;;;;;;49.70;26.67;;;;;;;;;;5093376;28;20202;-63
2021/01/17 03:22:54;;;;;;;53.83;27.35;;;;;;;;;;5093624;28;20211;-63
2021/01/17 03:25:26;;;;;;;51.97;27.65;;;;;;;;;;5093316;28;20225;-63
2021/01/17 03:27:54;;;;;;;55.28;29.67;;;;;;;;;;5093589;28;20618;-63
2021/01/17 03:30:26;;;;;;;50.95;27.10;;;;;;;;;;5094018;28;20252;-63
2021/01/17 03:32:53;;;;;;;53.85;27.00;;;;;;;;;;5094232;28;20203;-63
2021/01/17 03:35:20;;;;;;;58.80;28.20;;;;;;;;;;5093198;28;20192;-63
2021/01/17 03:37:46;;;;;;;49.67;24.90;;;;;;;;;;5093286;28;20195;-63
2021/01/17 03:40:13;;;;;;;53.90;28.63;;;;;;;;;;5093129;28;20191;-63
2021/01/17 03:42:40;;;;;;;55.50;28.83;;;;;;;;;;5093121;28;20220;-63
2021/01/17 03:45:07;;;;;;;52.53;26.90;;;;;;;;;;5112179;28;20571;-63
2021/01/17 03:47:34;;;;;;;53.97;29.05;;;;;;;;;;5092986;28;20269;-64
2021/01/17 03:50:01;;;;;;;48.28;26.10;;;;;;;;;;5093469;28;20210;-63
2021/01/17 03:52:32;;;;;;;51.53;25.95;;;;;;;;;;5093110;28;20199;-63
2021/01/17 03:54:59;;;;;;;56.80;29.30;;;;;;;;;;5093454;28;20248;-63
2021/01/17 03:57:27;;;;;;;49.50;28.25;;;;;;;;;;5093313;28;20196;-63
2021/01/17 03:59:53;;;;;;;53.28;26.92;;;;;;;;;;5096178;28;20192;-63
2021/01/17 04:02:20;;;;;;;53.10;28.40;;;;;;;;;;5096520;28;20226;-63
2021/01/17 04:04:47;;;;;;;55.47;25.77;;;;;;;;;;5097078;28;20183;-63
2021/01/17 04:07:13;;;;;;;48.53;27.50;;;;;;;;;;5096702;28;20256;-63
2021/01/17 04:09:40;;;;;;;52.35;27.98;;;;;;;;;;5096634;28;20187;-63
2021/01/17 04:12:07;;;;;;;54.65;27.55;;;;;;;;;;5096743;28;20215;-62
2021/01/17 04:14:34;;;;;;;53.30;28.33;;;;;;;;;;5110383;27;20209;-62
2021/01/17 04:17:01;;;;;;;56.65;27.80;;;;;;;;;;5102080;27;20662;-62
2021/01/17 04:19:30;;;;;;;48.05;25.95;;;;;;;;;;5096554;28;20611;-62
2021/01/17 04:21:58;;;;;;;57.08;27.23;;;;;;;;;;5096392;28;20234;-62
2021/01/17 04:24:25;;;;;;;50.63;29.48;;;;;;;;;;5096494;28;20187;-62
2021/01/17 04:27:02;;;;;;;51.15;27.23;;;;;;;;;;5096711;28;20199;-62
2021/01/17 04:29:29;;;;;;;49.15;26.20;;;;;;;;;;5096347;28;20214;-62
2021/01/17 04:31:58;;;;;;;56.63;27.63;;;;;;;;;;5095275;28;20191;-62
2021/01/17 04:34:25;;;;;;;51.88;28.05;;;;;;;;;;5096088;28;20203;-61
2021/01/17 04:36:57;;;;;;;47.15;26.45;;;;;;;;;;5096145;28;20258;-64
2021/01/17 04:39:24;;;;;;;50.67;25.40;;;;;;;;;;5096241;28;20198;-63
2021/01/17 04:41:52;;;;;;;47.22;25.85;;;;;;;;;;5096219;28;20237;-63
2021/01/17 04:44:22;;;;;;;48.25;25.10;;;;;;;;;;5106115;27;20197;-61
2021/01/17 04:46:49;;;;;;;46.97;25.52;;;;;;;;;;5098249;28;20227;-62
2021/01/17 04:49:19;;;;;;;45.53;24.75;;;;;;;;;;5095799;28;20650;-62
2021/01/17 04:51:50;;;;;;;47.60;26.77;;;;;;;;;;5095858;28;20200;-62
2021/01/17 04:54:17;;;;;;;57.70;25.40;;;;;;;;;;5095734;28;20675;-62
2021/01/17 04:56:49;;;;;;;50.40;25.23;;;;;;;;;;5095582;28;20261;-63
2021/01/17 04:59:26;;;;;;;59.55;28.30;;;;;;;;;;5095895;28;20179;-62
2021/01/17 05:02:12;;;;;;;45.17;24.85;;;;;;;;;;5095391;28;20363;-62
2021/01/17 05:04:54;;;;;;;56.92;27.42;;;;;;;;;;5095611;28;20176;-62
2021/01/17 05:07:24;;;;;;;54.47;27.45;;;;;;;;;;5094746;28;20176;-62
2021/01/17 05:09:56;;;;;;;46.03;26.08;;;;;;;;;;5095092;28;20199;-62
2021/01/17 05:12:29;;;;;;;52.45;27.35;;;;;;;;;;5094065;28;20203;-62
2021/01/17 05:14:57;;;;;;;52.42;25.98;;;;;;;;;;5112323;27;20718;-62
2021/01/17 05:17:27;;;;;;;55.30;27.20;;;;;;;;;;5096204;27;20661;-62
2021/01/17 05:19:54;;;;;;;49.30;26.70;;;;;;;;;;5094986;28;20211;-62
2021/01/17 05:22:22;;;;;;;52.78;27.30;;;;;;;;;;5094831;28;20219;-62
2021/01/17 05:24:53;;;;;;;51.90;25.80;;;;;;;;;;5095662;28;20195;-61
2021/01/17 05:27:21;;;;;;;57.70;28.80;;;;;;;;;;5094404;28;20226;-62
2021/01/17 05:29:49;;;;;;;55.03;27.95;;;;;;;;;;5094893;28;20191;-62
2021/01/17 05:32:17;;;;;;;51.58;28.52;;;;;;;;;;5094944;28;20243;-62
2021/01/17 05:34:47;;;;;;;57.25;29.42;;;;;;;;;;5095379;28;20207;-61
2021/01/17 05:37:14;;;;;;;49.80;26.85;;;;;;;;;;5094949;28;20206;-62
2021/01/17 05:39:53;;;;;;;52.65;28.17;;;;;;;;;;5094785;28;20246;-62
2021/01/17 05:42:24;;;;;;;53.67;26.92;;;;;;;;;;5094945;28;20223;-62
2021/01/17 05:44:51;;;;;;;57.75;29.33;;;;;;;;;;5110209;27;20580;-62
2021/01/17 05:47:22;;;;;;;53.58;26.25;;;;;;;;;;5097200;27;20227;-62
2021/01/17 05:50:07;;;;;;;53.08;28.80;;;;;;;;;;5095040;28;20198;-62
2021/01/17 05:52:34;;;;;;;51.20;28.10;;;;;;;;;;5094316;28;20199;-62
2021/01/17 05:55:04;;;;;;;57.13;28.25;;;;;;;;;;5094229;28;20199;-62
2021/01/17 05:57:32;;;;;;;61.42;30.33;;;;;;;;;;5094665;28;20196;-62
2021/01/17 06:00:00;;;;;;;51.03;27.38;;;;;;;;;;5094704;28;20216;-62
2021/01/17 06:02:27;;;;;;;55.55;28.55;;;;;;;;;;5094123;28;20219;-62
2021/01/17 06:04:58;;;;;;;56.63;27.85;;;;;;;;;;5094512;28;20199;-62
2021/01/17 06:07:26;;;;;;;48.03;27.02;;;;;;;;;;5094388;28;20199;-62
2021/01/17 06:10:06;;;;;;;50.95;27.05;;;;;;;;;;5094130;28;20197;-62
2021/01/17 06:12:35;;;;;;;50.53;27.42;;;;;;;;;;5094115;28;20176;-62
2021/01/17 06:15:19;;;;;;;54.42;26.65;;;;;;;;;;5112214;27;20207;-62
2021/01/17 06:17:47;;;;;;;53.13;26.77;;;;;;;;;;5075874;28;20612;-62
2021/01/17 06:20:25;;;;;;;56.13;30.33;;;;;;;;;;5093889;28;20187;-62
2021/01/17 06:22:59;;;;;;;50.72;27.63;;;;;;;;;;5093544;28;20209;-62
2021/01/17 06:25:29;;;;;;;52.78;26.80;;;;;;;;;;5094102;28;20241;-62
2021/01/17 06:28:12;;;;;;;51.75;26.33;;;;;;;;;;5093878;28;20230;-62
2021/01/17 06:30:41;;;;;;;43.72;25.05;;;;;;;;;;5093595;28;20191;-62
2021/01/17 06:33:08;;;;;;;50.90;25.45;;;;;;;;;;5093768;28;20198;-62
2021/01/17 06:35:37;;;;;;;50.05;25.13;;;;;;;;;;5093798;28;20199;-62
2021/01/17 06:38:20;;;;;;;58.63;25.65;;;;;;;;;;5093572;28;20203;-62
2021/01/17 06:40:52;;;;;;;49.78;24.67;;;;;;;;;;5093717;28;20183;-62
2021/01/17 06:43:25;;;;;;;52.35;26.30;;;;;;;;;;5093949;28;20215;-62
2021/01/17 06:45:52;;;;;;;49.75;23.65;;;;;;;;;;5112618;27;20207;-62
2021/01/17 06:48:22;;;;;;;49.67;26.20;;;;;;;;;;5093112;28;20242;-62
2021/01/17 06:50:49;;;;;;;53.60;25.48;;;;;;;;;;5093797;28;20233;-62
2021/01/17 06:53:23;;;;;;;46.08;24.15;;;;;;;;;;5093754;28;20582;-62
2021/01/17 06:56:14;;;;;;;47.80;24.80;;;;;;;;;;5093874;28;20201;-62
2021/01/17 06:58:41;;;;;;;46.63;24.08;;;;;;;;;;5094133;28;20323;-62
2021/01/17 07:01:08;;;;;;;47.25;24.67;;;;;;;;;;5093569;28;20198;-62
2021/01/17 07:04:03;;;;;;;44.53;24.25;;;;;;;;;;5092182;28;20227;-62
2021/01/17 07:06:49;;;;;;;49.60;24.58;;;;;;;;;;5093761;28;20191;-62
2021/01/17 07:09:38;;;;;;;57.38;24.13;;;;;;;;;;5093690;28;20233;-62
2021/01/17 07:12:41;;;;;;;44.42;22.65;;;;;;;;;;5093127;28;20199;-62
2021/01/17 07:15:08;;;;;;;47.30;23.10;;;;;;;;;;5040440;28;20751;-62
2021/01/17 07:17:39;;;;;;;50.45;24.73;;;;;;;;;;5082775;28;20562;-62
2021/01/17 07:20:06;;;;;;;50.20;24.23;;;;;;;;;;5093305;28;20218;-62
2021/01/17 07:22:33;;;;;;;47.42;24.15;;;;;;;;;;5093014;28;20237;-62
2021/01/17 07:25:00;;;;;;;49.28;24.88;;;;;;;;;;5093563;28;20566;-62
2021/01/17 07:27:37;;;;;;;46.08;22.75;;;;;;;;;;5093212;28;20608;-62
2021/01/17 07:30:13;;;;;;;44.17;24.90;;;;;;;;;;5093147;28;20221;-62
2021/01/17 07:32:53;;;;;;;45.17;23.50;;;;;;;;;;5093211;28;20179;-62
2021/01/17 07:35:24;;;;;;;39.05;22.23;;;;;;;;;;5097493;28;20203;-62
2021/01/17 07:37:57;;;;;;;45.58;23.80;;;;;;;;;;5097504;28;20603;-62
2021/01/17 07:43:12;;;;;;;48.65;24.95;;;;;;;;;;5117113;28;20549;-62
2021/01/17 07:45:39;;;;;;;48.95;24.85;;;;;;;;;;5116383;27;20230;-62
2021/01/17 07:48:09;;;;;;;47.30;24.73;;;;;;;;;;5116686;28;20279;-62
2021/01/17 07:50:37;;;;;;;46.47;24.00;;;;;;;;;;5114554;28;20202;-62
2021/01/17 07:53:06;;;;;;;46.85;23.92;;;;;;;;;;5109600;28;20218;-62
2021/01/17 07:55:34;;;;;;;46.47;23.67;;;;;;;;;;5109984;28;20560;-62
2021/01/17 07:58:03;;;;;;;46.95;24.67;;;;;;;;;;5116621;28;20577;-62
2021/01/17 08:00:30;;;;;;;44.78;23.60;;;;;;;;;;5116271;28;20202;-62
2021/01/17 08:03:02;;;;;;;43.55;23.55;;;;;;;;;;5116305;27;20594;-62
2021/01/17 08:05:47;;;;;;;40.33;23.75;;;;;;;;;;5116803;28;20201;-62
2021/01/17 08:08:33;;;;;;;51.45;25.67;;;;;;;;;;5116160;28;20289;-63
2021/01/17 08:11:01;;;;;;;47.55;24.45;;;;;;;;;;5116158;28;20683;-62
2021/01/17 08:13:34;;;;;;;47.28;24.30;;;;;;;;;;5116135;28;20672;-62
2021/01/17 08:16:11;;;;;;;48.72;24.23;;;;;;;;;;5114218;27;20206;-62
2021/01/17 08:18:38;;;;;;;45.22;23.90;;;;;;;;;;5116123;28;20200;-62
2021/01/17 08:21:23;;;;;;;43.08;22.65;;;;;;;;;;5102870;28;20642;-62
2021/01/17 08:24:11;;;;;;;43.55;22.63;;;;;;;;;;5095936;28;20223;-62
2021/01/17 08:26:56;;;;;;;44.40;23.48;;;;;;;;;;5096126;28;20566;-62
2021/01/17 08:29:23;;;;;;;46.30;24.75;;;;;;;;;;5094636;28;20199;-62
2021/01/17 08:31:50;;;;;;;46.17;23.30;;;;;;;;;;5096344;28;20200;-63
2021/01/17 08:34:25;;;;;;;43.90;23.40;;;;;;;;;;5096209;28;20191;-62
2021/01/17 08:36:53;;;;;;;39.15;23.55;;;;;;;;;;5095803;28;20201;-62
2021/01/17 08:39:38;;;;;;;44.08;23.88;;;;;;;;;;5096104;28;20653;-62
2021/01/17 08:42:27;;;;;;;43.22;23.13;;;;;;;;;;5095776;28;20188;-62
2021/01/17 08:44:54;;;;;;;38.28;21.48;;;;;;;;;;5120623;27;20289;-61
2021/01/17 08:47:21;;;;;;;43.42;22.05;;;;;;;;;;5098799;27;20231;-59
2021/01/17 08:49:48;;;;;;;41.05;22.92;;;;;;;;;;5095788;28;20188;-62
2021/01/17 08:52:23;;;;;;;44.63;22.90;;;;;;;;;;5095719;28;20562;-61
2021/01/17 08:54:50;;;;;;;43.80;21.50;;;;;;;;;;5095766;28;20581;-62
2021/01/17 08:57:36;;;;;;;36.58;19.52;;;;;;;;;;5093768;28;20199;-62
2021/01/17 09:00:04;;;;;;;41.53;22.83;;;;;;;;;;5095477;28;20199;-63
2021/01/17 09:02:31;;;;;;;43.42;22.83;;;;;;;;;;5095242;28;20191;-62
2021/01/17 09:04:57;;;;;;;40.97;22.52;;;;;;;;;;5095428;28;20669;-62
2021/01/17 09:07:37;;;;;;;39.83;22.38;;;;;;;;;;5095337;28;20658;-62
2021/01/17 09:10:05;;;;;;;42.17;21.23;;;;;;;;;;5095591;28;20199;-62
2021/01/17 09:12:34;;;;;;;43.13;22.90;;;;;;;;;;5095398;28;20193;-62
2021/01/17 09:15:15;;;;;;;41.83;22.55;;;;;;;;;;5124465;27;20204;-62
2021/01/17 09:17:44;;;;;;;43.22;23.23;;;;;;;;;;5095567;28;20607;-62
2021/01/17 09:20:17;;;;;;;41.85;23.55;;;;;;;;;;5095214;28;20573;-62
2021/01/17 09:22:44;;;;;;;34.97;20.60;;;;;;;;;;5095187;28;20222;-62
2021/01/17 09:25:12;;;;;;;35.70;19.08;;;;;;;;;;5095526;28;20200;-62
2021/01/17 09:27:41;;;;;;;43.58;22.40;;;;;;;;;;5095144;28;20273;-63
2021/01/17 09:30:11;;;;;;;34.25;19.10;;;;;;;;;;5095100;28;20191;-63
2021/01/17 09:32:41;;;;;;;33.85;20.92;;;;;;;;;;5094976;28;20190;-63
2021/01/17 09:35:07;;;;;;;35.72;20.25;;;;;;;;;;5095311;28;20206;-63
2021/01/17 09:37:35;;;;;;;38.75;19.67;;;;;;;;;;5094989;28;20199;-63
2021/01/17 09:40:05;;;;;;;35.55;20.10;;;;;;;;;;5094782;28;20195;-63
2021/01/17 09:42:40;;;;;;;30.70;18.98;;;;;;;;;;5095176;28;20619;-63
2021/01/17 09:45:07;;;;;;;34.95;20.05;;;;;;;;;;5123987;27;20194;-63
2021/01/17 09:47:36;;;;;;;32.70;19.45;;;;;;;;;;5094734;28;20254;-61
2021/01/17 09:50:08;;;;;;;34.92;19.00;;;;;;;;;;5094722;28;20187;-62
2021/01/17 09:52:37;;;;;;;26.98;16.83;;;;;;;;;;5094688;28;20194;-63
2021/01/17 09:55:06;;;;;;;32.47;18.05;;;;;;;;;;5094444;28;20191;-62
2021/01/17 09:57:37;;;;;;;34.80;18.92;;;;;;;;;;5093939;28;20245;-63
2021/01/17 10:00:07;;;;;;;35.85;19.73;;;;;;;;;;5094885;28;20256;-63
2021/01/17 10:02:37;;;;;;;26.98;16.55;;;;;;;;;;5094527;28;20215;-63
2021/01/17 10:05:04;;;;;;;30.75;17.23;;;;;;;;;;5094560;28;20196;-63
2021/01/17 10:07:31;;;;;;;28.95;18.05;;;;;;;;;;5094324;28;20284;-63
2021/01/17 10:09:57;;;;;;;30.27;18.92;;;;;;;;;;5094323;28;20203;-63
2021/01/17 10:12:24;;;;;;;26.63;16.75;;;;;;;;;;5094315;28;20642;-63
2021/01/17 10:14:53;;;;;;;29.50;15.57;;;;;;;;;;5119128;27;20203;-64
2021/01/17 10:17:20;;;;;;;31.35;18.90;;;;;;;;;;5098202;27;20184;-64
2021/01/17 10:19:49;;;;;;;28.05;18.13;;;;;;;;;;5094371;28;20206;-63
2021/01/17 10:22:17;;;;;;;27.35;16.92;;;;;;;;;;5094273;28;20187;-63
2021/01/17 10:24:44;;;;;;;26.63;17.00;;;;;;;;;;5096127;28;20689;-64
2021/01/17 10:27:12;;;;;;;23.77;16.02;;;;;;;;;;5095777;28;20207;-64
2021/01/17 10:29:42;;;;;;;25.15;16.05;;;;;;;;;;5111178;28;20199;-63
2021/01/17 10:32:11;;;;;;;26.08;15.30;;;;;;;;;;5103140;28;20194;-63
2021/01/17 10:34:43;;;;;;;27.73;17.40;;;;;;;;;;5100698;28;20208;-63
2021/01/17 10:37:14;;;;;;;27.88;17.50;;;;;;;;;;5093587;28;20282;-63
2021/01/17 10:39:41;;;;;;;26.33;15.35;;;;;;;;;;5092144;28;20211;-62
2021/01/17 10:42:10;;;;;;;24.48;15.63;;;;;;;;;;5093182;28;20590;-62
2021/01/17 10:44:41;;;;;;;23.42;15.23;;;;;;;;;;5106808;27;20608;-63
2021/01/17 10:47:21;;;;;;;21.40;14.32;;;;;;;;;;5092475;28;20687;-63
2021/01/17 10:49:53;;;;;;;24.70;15.05;;;;;;;;;;5093750;28;20604;-63
2021/01/17 10:52:25;;;;;;;22.50;14.20;;;;;;;;;;5091992;28;20270;-64
2021/01/17 10:54:53;;;;;;;23.48;15.38;;;;;;;;;;5093278;28;20261;-63
2021/01/17 10:57:21;;;;;;;25.52;16.50;;;;;;;;;;5093174;28;20195;-64
2021/01/17 10:59:51;;;;;;;25.58;15.77;;;;;;;;;;5091312;28;20290;-64
2021/01/17 11:02:22;;;;;;;29.20;18.13;;;;;;;;;;5093172;28;20207;-63
2021/01/17 11:04:48;;;;;;;28.98;18.02;;;;;;;;;;5092913;28;20214;-62
2021/01/17 11:07:18;;;;;;;32.90;19.50;;;;;;;;;;5093569;28;20203;-63
2021/01/17 11:09:47;;;;;;;28.75;18.15;;;;;;;;;;5097438;28;20191;-64
2021/01/17 11:12:14;;;;;;;27.88;17.17;;;;;;;;;;5097226;28;20203;-63
2021/01/17 11:14:43;;;;;;;27.27;17.20;;;;;;;;;;5118775;27;20205;-63
2021/01/17 11:17:19;;;;;;;31.63;18.52;;;;;;;;;;5105247;27;20207;-64
2021/01/17 11:19:47;;;;;;;29.23;17.73;;;;;;;;;;5097379;28;20564;-63
2021/01/17 11:22:14;;;;;;;34.05;19.55;;;;;;;;;;5097746;28;20203;-64
2021/01/17 11:24:42;;;;;;;30.17;19.42;;;;;;;;;;5097508;28;20226;-64
2021/01/17 11:27:17;;;;;;;33.22;19.67;;;;;;;;;;5097483;28;20203;-62
2021/01/17 11:29:48;;;;;;;28.77;18.13;;;;;;;;;;5097502;28;20168;-62
2021/01/17 11:32:14;;;;;;;32.10;18.70;;;;;;;;;;5097421;28;20207;-62
2021/01/17 11:34:42;;;;;;;32.75;20.02;;;;;;;;;;5097635;28;20207;-62
2021/01/17 11:37:09;;;;;;;31.08;19.05;;;;;;;;;;5096931;28;20207;-63
2021/01/17 11:39:38;;;;;;;30.77;18.65;;;;;;;;;;5096879;28;20286;-64
2021/01/17 11:42:05;;;;;;;33.03;19.95;;;;;;;;;;5095818;28;20680;-63
2021/01/17 11:44:34;;;;;;;29.20;18.60;;;;;;;;;;5118146;27;20225;-63
2021/01/17 11:47:02;;;;;;;28.08;17.63;;;;;;;;;;5104898;27;20229;-64
2021/01/17 11:49:29;;;;;;;31.85;17.75;;;;;;;;;;5095469;28;20227;-63
2021/01/17 11:51:56;;;;;;;27.67;18.38;;;;;;;;;;5097103;28;20268;-63
2021/01/17 11:54:32;;;;;;;28.90;18.73;;;;;;;;;;5096836;28;20277;-64
2021/01/17 11:57:07;;;;;;;27.50;17.33;;;;;;;;;;5095681;28;20215;-63
2021/01/17 11:59:35;;;;;;;26.83;17.77;;;;;;;;;;5096860;28;20203;-63
2021/01/17 12:02:18;;;;;;;28.92;18.75;;;;;;;;;;5096731;28;20240;-63
2021/01/17 12:04:45;;;;;;;33.42;19.15;;;;;;;;;;5096693;28;20214;-63
2021/01/17 12:07:13;;;;;;;29.60;17.30;;;;;;;;;;5096694;28;20196;-63
2021/01/17 12:09:41;;;;;;;32.38;18.83;;;;;;;;;;5096713;28;20650;-63
2021/01/17 12:12:15;;;;;;;32.50;18.75;;;;;;;;;;5096567;28;20187;-63
2021/01/17 12:14:42;;;;;;;28.52;18.50;;;;;;;;;;5117326;27;20663;-63
2021/01/17 12:17:10;;;;;;;29.40;18.45;;;;;;;;;;5093671;28;20199;-64
2021/01/17 12:19:37;;;;;;;29.38;18.42;;;;;;;;;;5095436;28;20203;-62
2021/01/17 12:22:05;;;;;;;30.35;17.65;;;;;;;;;;5096190;28;20203;-62
2021/01/17 12:24:33;;;;;;;28.75;18.35;;;;;;;;;;5096200;28;20219;-63
2021/01/17 12:27:01;;;;;;;32.28;19.23;;;;;;;;;;5096286;28;20632;-64
2021/01/17 12:29:29;;;;;;;45.28;18.52;;;;;;;;;;5096446;28;20565;-64
2021/01/17 12:31:55;;;;;;;34.00;21.05;;;;;;;;;;5095823;28;20210;-63
2021/01/17 12:34:22;;;;;;;49.33;31.65;;;;;;;;;;5095310;28;20552;-64
2021/01/17 12:36:49;;;;;;;102.05;62.05;;;;;;;;;;5096210;28;20188;-62
2021/01/17 12:39:17;;;;;;;56.60;35.30;;;;;;;;;;5095998;28;20211;-63
2021/01/17 12:41:44;;;;;;;31.40;18.30;;;;;;;;;;5096232;28;20192;-63
2021/01/17 12:44:13;;;;;;;33.17;19.90;;;;;;;;;;5109606;27;20225;-63
2021/01/17 12:46:40;;;;;;;28.02;17.05;;;;;;;;;;5109535;27;20258;-64
2021/01/17 12:49:06;;;;;;;34.95;22.00;;;;;;;;;;5112004;28;20210;-63
2021/01/17 12:51:36;;;;;;;27.63;17.63;;;;;;;;;;5115730;28;20197;-63
2021/01/17 12:54:03;;;;;;;44.13;26.08;;;;;;;;;;5115753;28;20207;-62
2021/01/17 12:56:29;;;;;;;66.95;41.65;;;;;;;;;;5115793;28;20203;-63
2021/01/17 12:58:56;;;;;;;44.30;25.13;;;;;;;;;;5115562;28;20206;-63
2021/01/17 13:01:23;;;;;;;32.88;19.60;;;;;;;;;;5115261;28;20217;-63
2021/01/17 13:03:52;;;;;;;31.98;19.98;;;;;;;;;;5115386;28;20222;-63
2021/01/17 13:06:18;;;;;;;31.80;18.00;;;;;;;;;;5106264;28;20199;-63
2021/01/17 13:08:48;;;;;;;30.33;18.13;;;;;;;;;;5094541;28;20652;-63
2021/01/17 13:11:16;;;;;;;29.25;17.13;;;;;;;;;;5094894;28;20192;-63
2021/01/17 13:13:44;;;;;;;29.13;18.13;;;;;;;;;;5094774;27;20210;-64
2021/01/17 13:16:17;;;;;;;32.97;18.73;;;;;;;;;;5100501;27;20203;-63
2021/01/17 13:18:48;;;;;;;33.65;17.63;;;;;;;;;;5094941;28;20194;-63
2021/01/17 13:21:19;;;;;;;30.13;18.85;;;;;;;;;;5095456;28;20199;-63
2021/01/17 13:23:46;;;;;;;30.92;18.73;;;;;;;;;;5095070;28;20215;-63
2021/01/17 13:26:19;;;;;;;26.60;17.02;;;;;;;;;;5095003;28;20287;-63
2021/01/17 13:28:47;;;;;;;27.83;16.20;;;;;;;;;;5093764;28;20179;-61
2021/01/17 13:31:14;;;;;;;29.42;17.55;;;;;;;;;;5094657;28;20537;-62
2021/01/17 13:33:41;;;;;;;28.45;17.50;;;;;;;;;;5095259;28;20203;-62
2021/01/17 13:36:08;;;;;;;22.25;15.73;;;;;;;;;;5095183;28;20195;-62
2021/01/17 13:38:35;;;;;;;21.88;15.40;;;;;;;;;;5094892;28;20591;-62
2021/01/17 13:41:03;;;;;;;24.90;17.02;;;;;;;;;;5094686;28;20279;-62
2021/01/17 13:43:32;;;;;;;26.63;17.23;;;;;;;;;;5094792;28;20682;-62
2021/01/17 13:46:01;;;;;;;29.83;17.25;;;;;;;;;;5124201;27;20211;-62
2021/01/17 13:48:30;;;;;;;26.67;16.38;;;;;;;;;;5094671;28;20331;-62
2021/01/17 13:50:57;;;;;;;27.52;17.13;;;;;;;;;;5094821;28;20256;-61
2021/01/17 13:53:25;;;;;;;27.05;16.95;;;;;;;;;;5094970;28;20560;-62
2021/01/17 13:55:52;;;;;;;25.83;15.50;;;;;;;;;;5094458;28;20597;-62
2021/01/17 13:58:19;;;;;;;23.55;15.82;;;;;;;;;;5094848;28;20565;-63
2021/01/17 14:00:46;;;;;;;25.98;16.52;;;;;;;;;;5094101;28;20260;-63
2021/01/17 14:03:13;;;;;;;26.45;16.75;;;;;;;;;;5094719;28;20576;-62
2021/01/17 14:05:40;;;;;;;23.95;15.85;;;;;;;;;;5094605;28;20205;-62
2021/01/17 14:08:07;;;;;;;25.20;16.67;;;;;;;;;;5094335;28;20274;-64
2021/01/17 14:10:34;;;;;;;23.40;15.80;;;;;;;;;;5097373;28;20190;-63
2021/01/17 14:13:00;;;;;;;27.30;17.25;;;;;;;;;;5114369;28;20197;-64
2021/01/17 14:15:27;;;;;;;30.38;18.95;;;;;;;;;;5133403;27;20211;-64
2021/01/17 14:17:57;;;;;;;31.63;17.98;;;;;;;;;;5097104;28;20643;-64
2021/01/17 14:20:26;;;;;;;30.77;18.20;;;;;;;;;;5102612;28;20202;-63
2021/01/17 14:22:53;;;;;;;27.38;17.70;;;;;;;;;;5114230;28;20202;-64
2021/01/17 14:25:24;;;;;;;28.80;16.95;;;;;;;;;;5112816;28;20219;-63
2021/01/17 14:27:51;;;;;;;27.60;17.88;;;;;;;;;;5112734;28;20689;-63
2021/01/17 14:30:18;;;;;;;29.42;18.48;;;;;;;;;;5113627;28;20638;-64
2021/01/17 14:32:46;;;;;;;31.77;19.52;;;;;;;;;;5107057;28;20558;-63
2021/01/17 14:35:12;;;;;;;32.97;20.30;;;;;;;;;;5093990;28;20187;-63